sensor_id;sensor_type;location;lat;lon;timestamp;P1;durP1;ratioP1;P2;durP2;ratioP2
29430;SDS011;16404;49.902;10.074;2022-07-29T05:32:53;6.75;;;2.53;;
29430;SDS011;16404;49.902;10.074;2022-07-29T05:35:38;6.18;;;2.58;;
29430;SDS011;16404;49.902;10.074;2022-07-29T05:38:22;4.50;;;2.30;;
29430;SDS011;16404;49.902;10.074;2022-07-29T05:41:07;5.88;;;2.75;;
29430;SDS011;16404;49.902;10.074;2022-07-29T05:43:51;5.77;;;2.80;;
29430;SDS011;16404;49.902;10.074;2022-07-29T05:46:36;4.80;;;2.25;;
29430;SDS011;16404;49.902;10.074;2022-07-29T05:49:20;5.93;;;2.40;;
29430;SDS011;16404;49.902;10.074;2022-07-29T05:52:05;5.18;;;2.92;;
29430;SDS011;16404;49.902;10.074;2022-07-29T05:54:50;5.90;;;2.60;;
29430;SDS011;16404;49.902;10.074;2022-07-29T05:57:35;12.45;;;2.72;;
29430;SDS011;16404;49.902;10.074;2022-07-29T06:00:19;8.27;;;2.63;;
29430;SDS011;16404;49.902;10.074;2022-07-29T06:03:04;6.88;;;2.55;;
29430;SDS011;16404;49.902;10.074;2022-07-29T06:05:48;9.45;;;2.42;;
29430;SDS011;16404;49.902;10.074;2022-07-29T06:08:33;7.75;;;3.00;;
29430;SDS011;16404;49.902;10.074;2022-07-29T06:11:18;9.50;;;3.00;;
29430;SDS011;16404;49.902;10.074;2022-07-29T06:14:02;10.13;;;2.75;;
29430;SDS011;16404;49.902;10.074;2022-07-29T06:16:47;11.52;;;2.42;;
29430;SDS011;16404;49.902;10.074;2022-07-29T06:19:33;10.67;;;2.70;;
29430;SDS011;16404;49.902;10.074;2022-07-29T06:22:18;7.50;;;2.72;;
29430;SDS011;16404;49.902;10.074;2022-07-29T06:25:03;11.60;;;2.92;;
29430;SDS011;16404;49.902;10.074;2022-07-29T06:27:48;11.57;;;2.67;;
29430;SDS011;16404;49.902;10.074;2022-07-29T06:30:33;4.72;;;2.33;;
29430;SDS011;16404;49.902;10.074;2022-07-29T06:33:18;8.10;;;2.70;;
29430;SDS011;16404;49.902;10.074;2022-07-29T06:36:03;12.23;;;2.92;;
29430;SDS011;16404;49.902;10.074;2022-07-29T06:38:49;3.80;;;2.50;;
29430;SDS011;16404;49.902;10.074;2022-07-29T06:41:34;5.97;;;2.80;;
29430;SDS011;16404;49.902;10.074;2022-07-29T06:44:26;7.88;;;2.17;;
29430;SDS011;16404;49.902;10.074;2022-07-29T06:47:10;5.47;;;2.50;;
29430;SDS011;16404;49.902;10.074;2022-07-29T06:49:55;6.57;;;2.63;;
29430;SDS011;16404;49.902;10.074;2022-07-29T06:52:40;5.07;;;2.47;;
29430;SDS011;16404;49.902;10.074;2022-07-29T06:55:24;6.65;;;2.65;;
29430;SDS011;16404;49.902;10.074;2022-07-29T06:58:09;8.20;;;2.33;;
29430;SDS011;16404;49.902;10.074;2022-07-29T07:00:55;5.55;;;2.33;;
29430;SDS011;16404;49.902;10.074;2022-07-29T07:03:40;5.50;;;2.45;;
29430;SDS011;16404;49.902;10.074;2022-07-29T07:06:25;8.18;;;2.13;;
29430;SDS011;16404;49.902;10.074;2022-07-29T07:09:10;4.95;;;2.30;;
29430;SDS011;16404;49.902;10.074;2022-07-29T07:11:54;4.13;;;2.45;;
29430;SDS011;16404;49.902;10.074;2022-07-29T07:14:39;5.15;;;2.22;;
29430;SDS011;16404;49.902;10.074;2022-07-29T07:17:24;6.07;;;2.38;;
29430;SDS011;16404;49.902;10.074;2022-07-29T07:20:09;5.43;;;2.10;;
29430;SDS011;16404;49.902;10.074;2022-07-29T07:22:54;2.97;;;1.92;;
29430;SDS011;16404;49.902;10.074;2022-07-29T07:25:38;5.53;;;2.03;;
29430;SDS011;16404;49.902;10.074;2022-07-29T07:28:23;8.95;;;2.10;;
29430;SDS011;16404;49.902;10.074;2022-07-29T07:31:07;6.45;;;2.35;;
29430;SDS011;16404;49.902;10.074;2022-07-29T07:33:53;9.15;;;2.47;;
29430;SDS011;16404;49.902;10.074;2022-07-29T07:36:38;6.38;;;2.35;;
29430;SDS011;16404;49.902;10.074;2022-07-29T07:39:22;6.80;;;2.42;;
29430;SDS011;16404;49.902;10.074;2022-07-29T07:42:07;11.60;;;2.30;;
29430;SDS011;16404;49.902;10.074;2022-07-29T07:44:51;8.63;;;2.72;;
29430;SDS011;16404;49.902;10.074;2022-07-29T07:47:37;3.10;;;2.30;;
29430;SDS011;16404;49.902;10.074;2022-07-29T07:50:22;12.07;;;2.47;;
29430;SDS011;16404;49.902;10.074;2022-07-29T07:53:06;5.72;;;2.08;;
29430;SDS011;16404;49.902;10.074;2022-07-29T07:55:51;7.32;;;2.45;;
29430;SDS011;16404;49.902;10.074;2022-07-29T07:58:35;8.45;;;2.10;;
29430;SDS011;16404;49.902;10.074;2022-07-29T08:01:20;3.03;;;1.83;;
29430;SDS011;16404;49.902;10.074;2022-07-29T08:04:06;4.80;;;2.22;;
29430;SDS011;16404;49.902;10.074;2022-07-29T08:09:37;7.35;;;2.30;;
29430;SDS011;16404;49.902;10.074;2022-07-29T08:12:22;10.95;;;2.38;;
29430;SDS011;16404;49.902;10.074;2022-07-29T08:15:07;11.98;;;2.83;;
29430;SDS011;16404;49.902;10.074;2022-07-29T08:17:51;6.32;;;2.40;;
29430;SDS011;16404;49.902;10.074;2022-07-29T08:20:36;4.72;;;2.20;;
29430;SDS011;16404;49.902;10.074;2022-07-29T08:23:22;7.93;;;2.38;;
29430;SDS011;16404;49.902;10.074;2022-07-29T08:28:54;4.28;;;2.03;;
29430;SDS011;16404;49.902;10.074;2022-07-29T08:31:40;5.43;;;2.50;;
29430;SDS011;16404;49.902;10.074;2022-07-29T08:34:24;5.10;;;2.30;;
29430;SDS011;16404;49.902;10.074;2022-07-29T08:37:09;3.08;;;2.10;;
29430;SDS011;16404;49.902;10.074;2022-07-29T08:39:54;5.22;;;2.30;;
29430;SDS011;16404;49.902;10.074;2022-07-29T08:42:39;5.93;;;2.00;;
29430;SDS011;16404;49.902;10.074;2022-07-29T08:48:09;7.90;;;2.40;;
29430;SDS011;16404;49.902;10.074;2022-07-29T08:50:55;4.20;;;2.75;;
29430;SDS011;16404;49.902;10.074;2022-07-29T08:53:41;3.53;;;2.17;;
29430;SDS011;16404;49.902;10.074;2022-07-29T08:56:27;5.68;;;2.10;;
29430;SDS011;16404;49.902;10.074;2022-07-29T08:59:12;4.03;;;2.30;;
29430;SDS011;16404;49.902;10.074;2022-07-29T09:01:57;5.00;;;2.28;;
29430;SDS011;16404;49.902;10.074;2022-07-29T09:04:43;6.88;;;2.30;;
29430;SDS011;16404;49.902;10.074;2022-07-29T09:07:28;2.88;;;2.10;;
29430;SDS011;16404;49.902;10.074;2022-07-29T09:10:13;8.02;;;2.33;;
29430;SDS011;16404;49.902;10.074;2022-07-29T09:12:58;2.95;;;2.05;;
29430;SDS011;16404;49.902;10.074;2022-07-29T09:15:43;4.35;;;2.17;;
29430;SDS011;16404;49.902;10.074;2022-07-29T09:18:37;2.72;;;1.98;;
29430;SDS011;16404;49.902;10.074;2022-07-29T09:21:24;6.75;;;2.13;;
29430;SDS011;16404;49.902;10.074;2022-07-29T09:25:00;4.35;;;2.22;;
29430;SDS011;16404;49.902;10.074;2022-07-29T09:27:39;5.60;;;1.92;;
29430;SDS011;16404;49.902;10.074;2022-07-29T09:30:23;4.63;;;2.13;;
29430;SDS011;16404;49.902;10.074;2022-07-29T09:33:09;6.88;;;2.53;;
29430;SDS011;16404;49.902;10.074;2022-07-29T09:36:04;6.88;;;2.33;;
29430;SDS011;16404;49.902;10.074;2022-07-29T09:39:02;8.52;;;2.55;;
29430;SDS011;16404;49.902;10.074;2022-07-29T09:41:49;6.38;;;2.38;;
29430;SDS011;16404;49.902;10.074;2022-07-29T09:44:42;7.63;;;2.10;;
29430;SDS011;16404;49.902;10.074;2022-07-29T09:47:42;7.93;;;2.22;;
29430;SDS011;16404;49.902;10.074;2022-07-29T09:50:38;5.57;;;2.10;;
29430;SDS011;16404;49.902;10.074;2022-07-29T09:53:30;7.28;;;2.20;;
29430;SDS011;16404;49.902;10.074;2022-07-29T09:56:19;4.10;;;2.33;;
29430;SDS011;16404;49.902;10.074;2022-07-29T09:59:06;4.22;;;1.95;;
29430;SDS011;16404;49.902;10.074;2022-07-29T10:01:52;8.13;;;2.20;;
29430;SDS011;16404;49.902;10.074;2022-07-29T10:04:41;10.32;;;2.47;;
29430;SDS011;16404;49.902;10.074;2022-07-29T10:07:26;3.70;;;2.10;;
29430;SDS011;16404;49.902;10.074;2022-07-29T10:10:27;7.55;;;2.20;;
29430;SDS011;16404;49.902;10.074;2022-07-29T10:13:15;3.70;;;2.17;;
29430;SDS011;16404;49.902;10.074;2022-07-29T10:16:00;6.28;;;2.10;;
29430;SDS011;16404;49.902;10.074;2022-07-29T10:21:30;5.05;;;2.13;;
29430;SDS011;16404;49.902;10.074;2022-07-29T10:24:16;5.28;;;2.35;;
29430;SDS011;16404;49.902;10.074;2022-07-29T10:27:01;6.68;;;2.60;;
29430;SDS011;16404;49.902;10.074;2022-07-29T10:29:47;7.32;;;2.30;;
29430;SDS011;16404;49.902;10.074;2022-07-29T10:38:30;5.20;;;2.13;;
29430;SDS011;16404;49.902;10.074;2022-07-29T10:44:32;8.32;;;2.70;;
29430;SDS011;16404;49.902;10.074;2022-07-29T10:50:06;5.07;;;2.50;;
29430;SDS011;16404;49.902;10.074;2022-07-29T10:52:53;3.28;;;2.42;;
29430;SDS011;16404;49.902;10.074;2022-07-29T10:55:38;3.92;;;2.75;;
29430;SDS011;16404;49.902;10.074;2022-07-29T10:58:28;4.72;;;2.47;;
29430;SDS011;16404;49.902;10.074;2022-07-29T11:01:28;4.28;;;2.67;;
29430;SDS011;16404;49.902;10.074;2022-07-29T11:04:13;9.38;;;2.88;;
29430;SDS011;16404;49.902;10.074;2022-07-29T11:10:19;4.53;;;2.53;;
29430;SDS011;16404;49.902;10.074;2022-07-29T11:12:55;2.85;;;2.33;;
29430;SDS011;16404;49.902;10.074;2022-07-29T11:15:55;4.53;;;2.60;;
29430;SDS011;16404;49.902;10.074;2022-07-29T11:24:41;3.20;;;2.75;;
29430;SDS011;16404;49.902;10.074;2022-07-29T11:27:30;9.10;;;2.92;;
29430;SDS011;16404;49.902;10.074;2022-07-29T11:30:41;4.45;;;2.47;;
29430;SDS011;16404;49.902;10.074;2022-07-29T11:33:35;3.92;;;2.33;;
29430;SDS011;16404;49.902;10.074;2022-07-29T11:36:20;3.80;;;2.28;;
29430;SDS011;16404;49.902;10.074;2022-07-29T11:39:24;8.82;;;2.72;;
29430;SDS011;16404;49.902;10.074;2022-07-29T11:47:53;4.00;;;2.35;;
29430;SDS011;16404;49.902;10.074;2022-07-29T11:50:42;4.32;;;2.30;;
29430;SDS011;16404;49.902;10.074;2022-07-29T11:53:26;6.05;;;2.55;;
29430;SDS011;16404;49.902;10.074;2022-07-29T11:56:11;4.30;;;2.60;;
29430;SDS011;16404;49.902;10.074;2022-07-29T11:59:05;3.00;;;2.40;;
29430;SDS011;16404;49.902;10.074;2022-07-29T12:01:57;11.07;;;2.70;;
29430;SDS011;16404;49.902;10.074;2022-07-29T12:04:53;7.28;;;2.47;;
29430;SDS011;16404;49.902;10.074;2022-07-29T12:07:39;5.20;;;2.38;;
29430;SDS011;16404;49.902;10.074;2022-07-29T12:10:29;4.80;;;2.58;;
29430;SDS011;16404;49.902;10.074;2022-07-29T12:13:15;5.50;;;2.80;;
29430;SDS011;16404;49.902;10.074;2022-07-29T12:16:01;4.25;;;2.40;;
29430;SDS011;16404;49.902;10.074;2022-07-29T12:21:59;4.70;;;2.38;;
29430;SDS011;16404;49.902;10.074;2022-07-29T12:24:44;6.35;;;2.50;;
29430;SDS011;16404;49.902;10.074;2022-07-29T12:27:28;4.85;;;2.70;;
29430;SDS011;16404;49.902;10.074;2022-07-29T12:30:14;4.97;;;2.53;;
29430;SDS011;16404;49.902;10.074;2022-07-29T12:32:59;8.88;;;2.67;;
29430;SDS011;16404;49.902;10.074;2022-07-29T12:35:45;4.68;;;2.40;;
29430;SDS011;16404;49.902;10.074;2022-07-29T12:38:32;4.35;;;2.60;;
29430;SDS011;16404;49.902;10.074;2022-07-29T12:41:18;5.95;;;2.40;;
29430;SDS011;16404;49.902;10.074;2022-07-29T12:44:03;3.97;;;2.53;;
29430;SDS011;16404;49.902;10.074;2022-07-29T12:47:00;6.28;;;2.40;;
29430;SDS011;16404;49.902;10.074;2022-07-29T12:49:46;6.05;;;2.63;;
29430;SDS011;16404;49.902;10.074;2022-07-29T12:52:32;3.33;;;2.35;;
29430;SDS011;16404;49.902;10.074;2022-07-29T13:01:21;3.15;;;2.42;;
29430;SDS011;16404;49.902;10.074;2022-07-29T13:04:05;5.75;;;2.78;;
29430;SDS011;16404;49.902;10.074;2022-07-29T13:06:50;5.22;;;2.35;;
29430;SDS011;16404;49.902;10.074;2022-07-29T13:09:45;3.42;;;2.30;;
29430;SDS011;16404;49.902;10.074;2022-07-29T13:12:30;7.78;;;2.60;;
29430;SDS011;16404;49.902;10.074;2022-07-29T13:15:14;6.65;;;2.47;;
29430;SDS011;16404;49.902;10.074;2022-07-29T13:18:00;5.95;;;2.60;;
29430;SDS011;16404;49.902;10.074;2022-07-29T13:20:44;6.03;;;2.40;;
29430;SDS011;16404;49.902;10.074;2022-07-29T13:23:29;12.18;;;2.35;;
29430;SDS011;16404;49.902;10.074;2022-07-29T13:26:13;5.82;;;2.22;;
29430;SDS011;16404;49.902;10.074;2022-07-29T13:29:02;5.28;;;2.65;;
29430;SDS011;16404;49.902;10.074;2022-07-29T13:34:31;4.53;;;2.10;;
29430;SDS011;16404;49.902;10.074;2022-07-29T13:37:17;4.13;;;2.28;;
29430;SDS011;16404;49.902;10.074;2022-07-29T13:40:02;6.28;;;2.65;;
29430;SDS011;16404;49.902;10.074;2022-07-29T13:42:47;3.58;;;2.47;;
29430;SDS011;16404;49.902;10.074;2022-07-29T13:45:32;9.77;;;3.10;;
29430;SDS011;16404;49.902;10.074;2022-07-29T13:48:16;6.13;;;2.22;;
29430;SDS011;16404;49.902;10.074;2022-07-29T13:51:01;6.38;;;2.55;;
29430;SDS011;16404;49.902;10.074;2022-07-29T13:53:46;5.50;;;2.42;;
29430;SDS011;16404;49.902;10.074;2022-07-29T13:56:30;4.47;;;3.05;;
29430;SDS011;16404;49.902;10.074;2022-07-29T13:59:15;6.43;;;2.72;;
29430;SDS011;16404;49.902;10.074;2022-07-29T14:02:00;5.15;;;2.70;;
29430;SDS011;16404;49.902;10.074;2022-07-29T14:04:44;9.30;;;2.90;;
29430;SDS011;16404;49.902;10.074;2022-07-29T14:07:29;8.93;;;2.90;;
29430;SDS011;16404;49.902;10.074;2022-07-29T14:10:13;5.25;;;2.53;;
29430;SDS011;16404;49.902;10.074;2022-07-29T14:12:58;5.93;;;2.97;;
29430;SDS011;16404;49.902;10.074;2022-07-29T14:15:42;7.45;;;3.10;;
29430;SDS011;16404;49.902;10.074;2022-07-29T14:18:27;6.43;;;3.30;;
29430;SDS011;16404;49.902;10.074;2022-07-29T14:21:12;7.35;;;3.10;;
29430;SDS011;16404;49.902;10.074;2022-07-29T14:23:56;4.43;;;2.90;;
29430;SDS011;16404;49.902;10.074;2022-07-29T14:26:41;6.88;;;3.38;;
29430;SDS011;16404;49.902;10.074;2022-07-29T14:29:26;8.65;;;3.20;;
29430;SDS011;16404;49.902;10.074;2022-07-29T14:32:10;3.97;;;2.95;;
29430;SDS011;16404;49.902;10.074;2022-07-29T14:34:55;4.68;;;3.25;;
29430;SDS011;16404;49.902;10.074;2022-07-29T14:37:39;6.47;;;2.90;;
29430;SDS011;16404;49.902;10.074;2022-07-29T14:40:24;7.32;;;3.45;;
29430;SDS011;16404;49.902;10.074;2022-07-29T14:45:53;9.98;;;3.53;;
29430;SDS011;16404;49.902;10.074;2022-07-29T14:48:38;6.97;;;3.53;;
29430;SDS011;16404;49.902;10.074;2022-07-29T14:51:23;7.32;;;3.38;;
29430;SDS011;16404;49.902;10.074;2022-07-29T14:54:07;10.23;;;3.58;;
29430;SDS011;16404;49.902;10.074;2022-07-29T14:56:52;7.75;;;3.80;;
29430;SDS011;16404;49.902;10.074;2022-07-29T14:59:40;6.85;;;3.65;;
29430;SDS011;16404;49.902;10.074;2022-07-29T15:02:25;5.53;;;3.47;;
29430;SDS011;16404;49.902;10.074;2022-07-29T15:05:09;6.57;;;3.33;;
29430;SDS011;16404;49.902;10.074;2022-07-29T15:07:54;8.73;;;3.72;;
29430;SDS011;16404;49.902;10.074;2022-07-29T15:10:38;6.57;;;3.38;;
29430;SDS011;16404;49.902;10.074;2022-07-29T15:13:23;8.75;;;3.80;;
29430;SDS011;16404;49.902;10.074;2022-07-29T15:16:07;7.45;;;3.65;;
29430;SDS011;16404;49.902;10.074;2022-07-29T15:18:52;4.75;;;3.33;;
29430;SDS011;16404;49.902;10.074;2022-07-29T15:21:37;5.82;;;3.20;;
29430;SDS011;16404;49.902;10.074;2022-07-29T15:24:22;5.57;;;3.80;;
29430;SDS011;16404;49.902;10.074;2022-07-29T15:27:06;5.20;;;3.47;;
29430;SDS011;16404;49.902;10.074;2022-07-29T15:29:51;5.38;;;3.00;;
29430;SDS011;16404;49.902;10.074;2022-07-29T15:32:36;6.25;;;3.63;;
29430;SDS011;16404;49.902;10.074;2022-07-29T15:35:20;8.45;;;2.97;;
29430;SDS011;16404;49.902;10.074;2022-07-29T15:38:05;6.22;;;3.25;;
29430;SDS011;16404;49.902;10.074;2022-07-29T15:40:49;7.68;;;3.22;;
29430;SDS011;16404;49.902;10.074;2022-07-29T15:43:34;4.95;;;2.80;;
29430;SDS011;16404;49.902;10.074;2022-07-29T15:46:19;5.10;;;2.60;;
29430;SDS011;16404;49.902;10.074;2022-07-29T15:49:22;5.90;;;2.58;;
29430;SDS011;16404;49.902;10.074;2022-07-29T15:52:14;4.78;;;2.92;;
29430;SDS011;16404;49.902;10.074;2022-07-29T15:55:00;3.40;;;2.88;;
29430;SDS011;16404;49.902;10.074;2022-07-29T15:57:44;2.92;;;2.60;;
29430;SDS011;16404;49.902;10.074;2022-07-29T16:00:29;5.35;;;2.75;;
29430;SDS011;16404;49.902;10.074;2022-07-29T16:03:14;3.95;;;2.75;;
29430;SDS011;16404;49.902;10.074;2022-07-29T16:05:58;3.40;;;2.95;;
29430;SDS011;16404;49.902;10.074;2022-07-29T16:08:43;3.85;;;3.00;;
29430;SDS011;16404;49.902;10.074;2022-07-29T16:11:29;5.15;;;2.58;;
29430;SDS011;16404;49.902;10.074;2022-07-29T16:14:13;5.72;;;3.03;;
29430;SDS011;16404;49.902;10.074;2022-07-29T16:16:58;3.28;;;2.97;;
29430;SDS011;16404;49.902;10.074;2022-07-29T16:19:46;4.88;;;3.08;;
29430;SDS011;16404;49.902;10.074;2022-07-29T16:22:31;5.32;;;3.30;;
29430;SDS011;16404;49.902;10.074;2022-07-29T16:25:15;3.78;;;3.20;;
29430;SDS011;16404;49.902;10.074;2022-07-29T16:28:00;3.67;;;3.33;;
29430;SDS011;16404;49.902;10.074;2022-07-29T16:33:29;4.55;;;3.55;;
29430;SDS011;16404;49.902;10.074;2022-07-29T16:36:14;5.00;;;3.88;;
29430;SDS011;16404;49.902;10.074;2022-07-29T16:41:43;6.78;;;3.20;;
29430;SDS011;16404;49.902;10.074;2022-07-29T16:44:28;2.85;;;2.53;;
29430;SDS011;16404;49.902;10.074;2022-07-29T16:47:12;2.70;;;2.50;;
29430;SDS011;16404;49.902;10.074;2022-07-29T16:49:57;2.78;;;2.55;;
29430;SDS011;16404;49.902;10.074;2022-07-29T16:52:42;5.10;;;2.72;;
29430;SDS011;16404;49.902;10.074;2022-07-29T16:55:26;2.97;;;2.65;;
29430;SDS011;16404;49.902;10.074;2022-07-29T16:58:11;2.90;;;2.47;;
29430;SDS011;16404;49.902;10.074;2022-07-29T17:00:55;3.90;;;3.13;;
29430;SDS011;16404;49.902;10.074;2022-07-29T17:03:40;3.42;;;3.13;;
29430;SDS011;16404;49.902;10.074;2022-07-29T17:06:44;3.80;;;3.28;;
29430;SDS011;16404;49.902;10.074;2022-07-29T17:09:29;4.15;;;3.63;;
29430;SDS011;16404;49.902;10.074;2022-07-29T17:12:14;5.40;;;3.58;;
29430;SDS011;16404;49.902;10.074;2022-07-29T17:14:58;12.70;;;4.57;;
29430;SDS011;16404;49.902;10.074;2022-07-29T17:17:44;6.05;;;3.30;;
29430;SDS011;16404;49.902;10.074;2022-07-29T17:20:29;4.07;;;3.67;;
29430;SDS011;16404;49.902;10.074;2022-07-29T17:23:15;5.32;;;4.03;;
29430;SDS011;16404;49.902;10.074;2022-07-29T17:26:00;5.45;;;3.75;;
29430;SDS011;16404;49.902;10.074;2022-07-29T17:28:45;4.43;;;3.38;;
29430;SDS011;16404;49.902;10.074;2022-07-29T17:31:31;4.75;;;4.00;;
29430;SDS011;16404;49.902;10.074;2022-07-29T17:34:16;5.67;;;3.60;;
29430;SDS011;16404;49.902;10.074;2022-07-29T17:37:00;4.30;;;3.70;;
29430;SDS011;16404;49.902;10.074;2022-07-29T17:39:45;7.45;;;3.72;;
29430;SDS011;16404;49.902;10.074;2022-07-29T17:42:29;5.30;;;4.35;;
29430;SDS011;16404;49.902;10.074;2022-07-29T17:45:14;5.90;;;3.75;;
29430;SDS011;16404;49.902;10.074;2022-07-29T17:47:58;9.07;;;4.70;;
29430;SDS011;16404;49.902;10.074;2022-07-29T17:50:43;5.93;;;4.22;;
29430;SDS011;16404;49.902;10.074;2022-07-29T17:53:27;5.28;;;4.15;;
29430;SDS011;16404;49.902;10.074;2022-07-29T17:56:12;8.77;;;5.13;;
29430;SDS011;16404;49.902;10.074;2022-07-29T17:58:57;10.23;;;4.95;;
29430;SDS011;16404;49.902;10.074;2022-07-29T18:01:49;6.20;;;4.60;;
29430;SDS011;16404;49.902;10.074;2022-07-29T18:04:33;6.68;;;4.30;;
29430;SDS011;16404;49.902;10.074;2022-07-29T18:07:18;8.15;;;5.03;;
29430;SDS011;16404;49.902;10.074;2022-07-29T18:10:03;8.18;;;5.20;;
29430;SDS011;16404;49.902;10.074;2022-07-29T18:15:32;9.88;;;5.18;;
29430;SDS011;16404;49.902;10.074;2022-07-29T18:18:17;9.00;;;5.05;;
29430;SDS011;16404;49.902;10.074;2022-07-29T18:21:02;8.43;;;5.38;;
29430;SDS011;16404;49.902;10.074;2022-07-29T18:23:47;6.88;;;5.13;;
29430;SDS011;16404;49.902;10.074;2022-07-29T18:26:33;6.75;;;4.40;;
29430;SDS011;16404;49.902;10.074;2022-07-29T18:29:18;4.63;;;4.18;;
29430;SDS011;16404;49.902;10.074;2022-07-29T18:32:02;12.10;;;5.20;;
29430;SDS011;16404;49.902;10.074;2022-07-29T18:34:48;12.35;;;5.22;;
29430;SDS011;16404;49.902;10.074;2022-07-29T18:37:32;10.00;;;5.30;;
29430;SDS011;16404;49.902;10.074;2022-07-29T18:40:17;6.63;;;4.40;;
29430;SDS011;16404;49.902;10.074;2022-07-29T18:43:04;8.43;;;4.65;;
29430;SDS011;16404;49.902;10.074;2022-07-29T18:45:49;5.38;;;4.70;;
29430;SDS011;16404;49.902;10.074;2022-07-29T18:48:34;7.75;;;5.30;;
29430;SDS011;16404;49.902;10.074;2022-07-29T18:51:20;9.65;;;5.10;;
29430;SDS011;16404;49.902;10.074;2022-07-29T18:54:04;7.70;;;4.82;;
29430;SDS011;16404;49.902;10.074;2022-07-29T18:56:49;8.25;;;4.70;;
29430;SDS011;16404;49.902;10.074;2022-07-29T18:59:33;7.75;;;4.90;;
29430;SDS011;16404;49.902;10.074;2022-07-29T19:02:19;9.88;;;5.05;;
29430;SDS011;16404;49.902;10.074;2022-07-29T19:05:04;9.07;;;4.43;;
29430;SDS011;16404;49.902;10.074;2022-07-29T19:07:50;7.13;;;4.40;;
29430;SDS011;16404;49.902;10.074;2022-07-29T19:10:34;7.07;;;4.60;;
29430;SDS011;16404;49.902;10.074;2022-07-29T19:13:19;8.70;;;5.28;;
29430;SDS011;16404;49.902;10.074;2022-07-29T19:16:04;5.30;;;4.80;;
29430;SDS011;16404;49.902;10.074;2022-07-29T19:18:49;7.10;;;5.60;;
29430;SDS011;16404;49.902;10.074;2022-07-29T19:21:34;12.00;;;6.18;;
29430;SDS011;16404;49.902;10.074;2022-07-29T19:24:18;6.85;;;5.70;;
29430;SDS011;16404;49.902;10.074;2022-07-29T19:27:03;7.90;;;6.00;;
29430;SDS011;16404;49.902;10.074;2022-07-29T19:29:47;7.80;;;6.32;;
